Seberi, Brazil
Current Conditions -  °F | °C
As of 5:00 AM on Friday 19 Dec 2014 (Local Time) from SBCH Reporting Station
Clear Clear  
Wind Chill: 70°   Ceiling: Unl
Heat Index: 70°   Visibility: 6mi
Dew Point: 64°   Wind: 12mph
Humidity: 83%   Direction: 120°ESE
Pressure: 29.83"   Gusts: NA
Location:  27.48°S, 53.4°W
Report Text: SBCH 190700Z 12010KT CAVOK 21/18 Q1010
Loading
Personal Weather Stations






























Interactive Weather Map New forecast layout! Learn more

10-Day Weather Forecast

Advertisements
Track Severe Weather on mobile